sensor_id;sensor_type;location;lat;lon;timestamp;pressure;altitude;pressure_sealevel;temperature;humidity
28448;BME280;15675;52.870;-1.416;2023-05-23T00:01:44;102114.25;;;16.00;62.63
28448;BME280;15675;52.870;-1.416;2023-05-23T00:04:11;102115.00;;;15.74;66.47
28448;BME280;15675;52.870;-1.416;2023-05-23T00:06:42;102117.81;;;16.33;68.33
28448;BME280;15675;52.870;-1.416;2023-05-23T00:09:13;102117.84;;;16.50;65.90
28448;BME280;15675;52.870;-1.416;2023-05-23T00:11:39;102120.50;;;16.64;64.04
28448;BME280;15675;52.870;-1.416;2023-05-23T00:14:11;102117.88;;;16.58;61.83
28448;BME280;15675;52.870;-1.416;2023-05-23T00:16:40;102109.13;;;16.68;60.94
28448;BME280;15675;52.870;-1.416;2023-05-23T00:19:09;102113.53;;;16.95;60.33
28448;BME280;15675;52.870;-1.416;2023-05-23T00:21:35;102108.22;;;17.21;60.71
28448;BME280;15675;52.870;-1.416;2023-05-23T00:24:01;102114.41;;;16.88;62.44
28448;BME280;15675;52.870;-1.416;2023-05-23T00:26:27;102114.38;;;16.69;62.72
28448;BME280;15675;52.870;-1.416;2023-05-23T00:28:54;102115.09;;;15.83;64.34
28448;BME280;15675;52.870;-1.416;2023-05-23T00:31:21;102122.19;;;16.43;64.49
28448;BME280;15675;52.870;-1.416;2023-05-23T00:33:47;102111.78;;;16.88;63.42
28448;BME280;15675;52.870;-1.416;2023-05-23T00:36:13;102113.50;;;16.63;61.53
28448;BME280;15675;52.870;-1.416;2023-05-23T00:38:39;102111.72;;;16.37;62.36
28448;BME280;15675;52.870;-1.416;2023-05-23T00:41:05;102123.97;;;16.61;64.72
28448;BME280;15675;52.870;-1.416;2023-05-23T00:43:31;102117.88;;;16.64;65.06
28448;BME280;15675;52.870;-1.416;2023-05-23T00:45:57;102120.47;;;16.45;66.40
28448;BME280;15675;52.870;-1.416;2023-05-23T00:48:24;102120.47;;;16.68;67.05
28448;BME280;15675;52.870;-1.416;2023-05-23T00:50:51;102119.66;;;16.91;66.69
28448;BME280;15675;52.870;-1.416;2023-05-23T00:53:17;102125.75;;;17.01;66.13
28448;BME280;15675;52.870;-1.416;2023-05-23T00:55:43;102123.09;;;16.42;64.91
28448;BME280;15675;52.870;-1.416;2023-05-23T00:58:10;102123.09;;;16.37;66.07
28448;BME280;15675;52.870;-1.416;2023-05-23T01:00:37;102121.34;;;16.41;65.35
28448;BME280;15675;52.870;-1.416;2023-05-23T01:03:03;102118.72;;;16.64;65.20
28448;BME280;15675;52.870;-1.416;2023-05-23T01:05:30;102123.13;;;16.58;64.62
28448;BME280;15675;52.870;-1.416;2023-05-23T01:07:56;102122.22;;;16.76;64.62
28448;BME280;15675;52.870;-1.416;2023-05-23T01:10:24;102131.84;;;16.58;64.96
28448;BME280;15675;52.870;-1.416;2023-05-23T01:13:09;102130.97;;;16.44;67.43
28448;BME280;15675;52.870;-1.416;2023-05-23T01:15:46;102126.13;;;15.36;68.13
28448;BME280;15675;52.870;-1.416;2023-05-23T01:18:20;102133.03;;;15.25;72.24
28448;BME280;15675;52.870;-1.416;2023-05-23T01:20:51;102133.13;;;15.39;72.66
28448;BME280;15675;52.870;-1.416;2023-05-23T01:23:40;102138.38;;;15.40;73.32
28448;BME280;15675;52.870;-1.416;2023-05-23T01:26:28;102135.63;;;15.20;74.39
28448;BME280;15675;52.870;-1.416;2023-05-23T01:29:03;102131.34;;;15.33;75.17
28448;BME280;15675;52.870;-1.416;2023-05-23T01:31:36;102139.16;;;15.21;74.78
28448;BME280;15675;52.870;-1.416;2023-05-23T01:34:06;102134.88;;;15.35;73.95
28448;BME280;15675;52.870;-1.416;2023-05-23T01:36:33;102132.88;;;15.03;74.26
28448;BME280;15675;52.870;-1.416;2023-05-23T01:39:00;102136.59;;;15.34;74.47
28448;BME280;15675;52.870;-1.416;2023-05-23T01:41:26;102138.53;;;15.65;72.84
28448;BME280;15675;52.870;-1.416;2023-05-23T01:43:53;102126.28;;;15.59;72.11
28448;BME280;15675;52.870;-1.416;2023-05-23T01:46:21;102129.63;;;15.35;73.09
28448;BME280;15675;52.870;-1.416;2023-05-23T01:48:48;102127.06;;;15.47;73.37
28448;BME280;15675;52.870;-1.416;2023-05-23T01:51:15;102123.84;;;15.98;72.23
28448;BME280;15675;52.870;-1.416;2023-05-23T01:53:42;102129.06;;;15.93;71.59
28448;BME280;15675;52.870;-1.416;2023-05-23T01:56:08;102131.34;;;15.31;72.70
28448;BME280;15675;52.870;-1.416;2023-05-23T01:58:34;102137.75;;;15.86;74.18
28448;BME280;15675;52.870;-1.416;2023-05-23T02:01:00;102133.53;;;16.24;72.89
28448;BME280;15675;52.870;-1.416;2023-05-23T02:03:26;102130.91;;;16.30;71.35
28448;BME280;15675;52.870;-1.416;2023-05-23T02:05:52;102130.09;;;16.79;70.24
28448;BME280;15675;52.870;-1.416;2023-05-23T02:08:18;102133.59;;;16.59;69.10
28448;BME280;15675;52.870;-1.416;2023-05-23T02:10:44;102133.56;;;16.41;69.96
28448;BME280;15675;52.870;-1.416;2023-05-23T02:13:10;102136.16;;;16.25;71.03
28448;BME280;15675;52.870;-1.416;2023-05-23T02:15:36;102133.03;;;15.22;75.28
28448;BME280;15675;52.870;-1.416;2023-05-23T02:18:02;102139.56;;;14.65;79.58
28448;BME280;15675;52.870;-1.416;2023-05-23T02:20:28;102135.34;;;14.81;83.16
28448;BME280;15675;52.870;-1.416;2023-05-23T02:22:54;102134.00;;;15.38;81.98
28448;BME280;15675;52.870;-1.416;2023-05-23T02:25:20;102130.63;;;15.62;79.30
28448;BME280;15675;52.870;-1.416;2023-05-23T02:27:46;102135.63;;;15.17;78.72
28448;BME280;15675;52.870;-1.416;2023-05-23T02:30:12;102138.94;;;14.96;81.54
28448;BME280;15675;52.870;-1.416;2023-05-23T02:32:38;102138.22;;;15.12;81.48
28448;BME280;15675;52.870;-1.416;2023-05-23T02:35:05;102143.97;;;14.73;84.53
28448;BME280;15675;52.870;-1.416;2023-05-23T02:37:30;102136.56;;;15.30;84.30
28448;BME280;15675;52.870;-1.416;2023-05-23T02:39:56;102143.41;;;15.09;84.72
28448;BME280;15675;52.870;-1.416;2023-05-23T02:42:22;102141.66;;;15.05;84.53
28448;BME280;15675;52.870;-1.416;2023-05-23T02:44:48;102138.22;;;15.17;83.48
28448;BME280;15675;52.870;-1.416;2023-05-23T02:47:14;102133.13;;;15.34;83.25
28448;BME280;15675;52.870;-1.416;2023-05-23T02:49:40;102135.88;;;15.63;81.18
28448;BME280;15675;52.870;-1.416;2023-05-23T02:52:06;102148.22;;;15.83;78.88
28448;BME280;15675;52.870;-1.416;2023-05-23T02:54:32;102141.16;;;15.69;78.01
28448;BME280;15675;52.870;-1.416;2023-05-23T02:56:58;102143.47;;;15.22;78.38
28448;BME280;15675;52.870;-1.416;2023-05-23T02:59:23;102149.13;;;15.82;78.01
28448;BME280;15675;52.870;-1.416;2023-05-23T03:01:51;102147.38;;;15.93;75.76
28448;BME280;15675;52.870;-1.416;2023-05-23T03:04:17;102144.56;;;15.53;75.72
28448;BME280;15675;52.870;-1.416;2023-05-23T03:06:43;102138.34;;;15.32;76.50
28448;BME280;15675;52.870;-1.416;2023-05-23T03:09:09;102145.97;;;15.05;78.61
28448;BME280;15675;52.870;-1.416;2023-05-23T03:11:36;102134.78;;;15.23;78.72
28448;BME280;15675;52.870;-1.416;2023-05-23T03:14:02;102138.22;;;15.15;78.26
28448;BME280;15675;52.870;-1.416;2023-05-23T03:16:28;102128.75;;;15.34;78.35
28448;BME280;15675;52.870;-1.416;2023-05-23T03:18:53;102130.25;;;15.00;77.62
28448;BME280;15675;52.870;-1.416;2023-05-23T03:21:19;102131.06;;;14.90;79.21
28448;BME280;15675;52.870;-1.416;2023-05-23T03:23:45;102141.38;;;14.74;80.66
28448;BME280;15675;52.870;-1.416;2023-05-23T03:26:11;102140.44;;;14.67;82.17
28448;BME280;15675;52.870;-1.416;2023-05-23T03:28:37;102146.22;;;14.39;83.79
28448;BME280;15675;52.870;-1.416;2023-05-23T03:31:03;102151.00;;;14.78;83.75
28448;BME280;15675;52.870;-1.416;2023-05-23T03:33:29;102155.72;;;15.26;83.18
28448;BME280;15675;52.870;-1.416;2023-05-23T03:35:55;102148.00;;;15.47;80.44
28448;BME280;15675;52.870;-1.416;2023-05-23T03:38:22;102150.91;;;15.98;78.23
28448;BME280;15675;52.870;-1.416;2023-05-23T03:40:48;102157.06;;;16.11;75.99
28448;BME280;15675;52.870;-1.416;2023-05-23T03:43:14;102150.09;;;16.16;73.82
28448;BME280;15675;52.870;-1.416;2023-05-23T03:45:40;102153.59;;;16.09;72.42
28448;BME280;15675;52.870;-1.416;2023-05-23T03:48:06;102162.22;;;15.91;72.39
28448;BME280;15675;52.870;-1.416;2023-05-23T03:50:32;102162.03;;;15.62;72.89
28448;BME280;15675;52.870;-1.416;2023-05-23T03:52:58;102167.94;;;15.27;75.91
28448;BME280;15675;52.870;-1.416;2023-05-23T03:55:24;102161.75;;;15.15;77.95
28448;BME280;15675;52.870;-1.416;2023-05-23T03:57:50;102160.84;;;15.10;79.13
28448;BME280;15675;52.870;-1.416;2023-05-23T04:00:17;102163.38;;;14.98;80.98
28448;BME280;15675;52.870;-1.416;2023-05-23T04:02:43;102165.72;;;14.67;81.92
28448;BME280;15675;52.870;-1.416;2023-05-23T04:05:11;102167.13;;;14.40;84.58
28448;BME280;15675;52.870;-1.416;2023-05-23T04:07:37;102162.94;;;14.56;85.78
28448;BME280;15675;52.870;-1.416;2023-05-23T04:10:04;102156.81;;;14.49;86.12
28448;BME280;15675;52.870;-1.416;2023-05-23T04:12:30;102160.78;;;14.99;85.46
28448;BME280;15675;52.870;-1.416;2023-05-23T04:14:56;102160.81;;;15.07;83.58
28448;BME280;15675;52.870;-1.416;2023-05-23T04:17:23;102160.84;;;15.10;82.58
28448;BME280;15675;52.870;-1.416;2023-05-23T04:19:49;102158.34;;;15.26;81.04
28448;BME280;15675;52.870;-1.416;2023-05-23T04:22:16;102168.81;;;15.27;79.52
28448;BME280;15675;52.870;-1.416;2023-05-23T04:24:42;102168.09;;;15.51;78.05
28448;BME280;15675;52.870;-1.416;2023-05-23T04:27:08;102165.53;;;15.61;77.52
28448;BME280;15675;52.870;-1.416;2023-05-23T04:29:34;102165.72;;;15.90;76.20
28448;BME280;15675;52.870;-1.416;2023-05-23T04:32:01;102160.44;;;15.79;74.60
28448;BME280;15675;52.870;-1.416;2023-05-23T04:34:27;102160.41;;;15.78;73.92
28448;BME280;15675;52.870;-1.416;2023-05-23T04:36:53;102154.09;;;15.43;74.81
28448;BME280;15675;52.870;-1.416;2023-05-23T04:39:19;102156.19;;;14.72;78.13
28448;BME280;15675;52.870;-1.416;2023-05-23T04:41:45;102162.88;;;14.50;81.19
28448;BME280;15675;52.870;-1.416;2023-05-23T04:44:11;102158.81;;;14.75;82.64
28448;BME280;15675;52.870;-1.416;2023-05-23T04:46:39;102170.59;;;15.34;81.73
28448;BME280;15675;52.870;-1.416;2023-05-23T04:49:07;102160.09;;;15.24;80.03
28448;BME280;15675;52.870;-1.416;2023-05-23T04:51:33;102168.03;;;15.41;79.60
28448;BME280;15675;52.870;-1.416;2023-05-23T04:54:00;102166.47;;;15.72;79.33
28448;BME280;15675;52.870;-1.416;2023-05-23T04:56:26;102172.69;;;15.88;77.80
28448;BME280;15675;52.870;-1.416;2023-05-23T04:58:53;102173.44;;;15.73;77.09
28448;BME280;15675;52.870;-1.416;2023-05-23T05:01:19;102173.44;;;15.73;77.53
28448;BME280;15675;52.870;-1.416;2023-05-23T05:03:45;102175.19;;;15.71;78.30
28448;BME280;15675;52.870;-1.416;2023-05-23T05:06:12;102185.53;;;15.46;78.80
28448;BME280;15675;52.870;-1.416;2023-05-23T05:08:38;102182.94;;;15.54;79.45
28448;BME280;15675;52.870;-1.416;2023-05-23T05:11:05;102184.72;;;15.63;79.87
28448;BME280;15675;52.870;-1.416;2023-05-23T05:13:31;102187.44;;;15.78;79.52
28448;BME280;15675;52.870;-1.416;2023-05-23T05:15:57;102192.81;;;15.97;78.79
28448;BME280;15675;52.870;-1.416;2023-05-23T05:18:25;102191.06;;;15.99;78.16
28448;BME280;15675;52.870;-1.416;2023-05-23T05:20:51;102191.94;;;16.02;77.11
28448;BME280;15675;52.870;-1.416;2023-05-23T05:23:18;102190.19;;;16.04;77.19
28448;BME280;15675;52.870;-1.416;2023-05-23T05:25:44;102196.38;;;16.17;76.77
28448;BME280;15675;52.870;-1.416;2023-05-23T05:28:10;102203.38;;;16.21;76.90
28448;BME280;15675;52.870;-1.416;2023-05-23T05:30:36;102198.97;;;16.13;77.59
28448;BME280;15675;52.870;-1.416;2023-05-23T05:33:03;102200.47;;;15.69;79.23
28448;BME280;15675;52.870;-1.416;2023-05-23T05:35:30;102202.38;;;15.93;79.73
28448;BME280;15675;52.870;-1.416;2023-05-23T05:37:58;102199.78;;;15.98;79.95
28448;BME280;15675;52.870;-1.416;2023-05-23T05:40:25;102199.88;;;16.19;79.30
28448;BME280;15675;52.870;-1.416;2023-05-23T05:42:51;102198.22;;;16.46;78.21
28448;BME280;15675;52.870;-1.416;2023-05-23T05:45:17;102205.19;;;16.33;77.44
28448;BME280;15675;52.870;-1.416;2023-05-23T05:47:44;102201.59;;;16.11;77.43
28448;BME280;15675;52.870;-1.416;2023-05-23T05:50:10;102198.13;;;16.15;77.76
28448;BME280;15675;52.870;-1.416;2023-05-23T05:52:37;102198.19;;;16.40;78.12
28448;BME280;15675;52.870;-1.416;2023-05-23T05:55:06;102196.47;;;16.48;77.05
28448;BME280;15675;52.870;-1.416;2023-05-23T05:57:33;102193.91;;;16.74;76.79
28448;BME280;15675;52.870;-1.416;2023-05-23T05:59:59;102199.94;;;16.47;75.26
28448;BME280;15675;52.870;-1.416;2023-05-23T06:02:24;102204.28;;;16.27;76.85
28448;BME280;15675;52.870;-1.416;2023-05-23T06:04:51;102200.66;;;15.95;75.61
28448;BME280;15675;52.870;-1.416;2023-05-23T06:07:17;102208.53;;;16.06;76.16
28448;BME280;15675;52.870;-1.416;2023-05-23T06:09:43;102202.44;;;16.07;75.58
28448;BME280;15675;52.870;-1.416;2023-05-23T06:12:09;102196.16;;;15.76;76.49
28448;BME280;15675;52.870;-1.416;2023-05-23T06:14:35;102201.28;;;15.59;77.16
28448;BME280;15675;52.870;-1.416;2023-05-23T06:17:02;102196.75;;;15.36;77.50
28448;BME280;15675;52.870;-1.416;2023-05-23T06:19:28;102187.44;;;15.77;78.62
28448;BME280;15675;52.870;-1.416;2023-05-23T06:21:54;102191.97;;;16.12;76.37
28448;BME280;15675;52.870;-1.416;2023-05-23T06:24:19;102187.75;;;16.45;75.22
28448;BME280;15675;52.870;-1.416;2023-05-23T06:26:45;102181.66;;;16.70;72.77
28448;BME280;15675;52.870;-1.416;2023-05-23T06:29:12;102183.41;;;16.67;71.35
28448;BME280;15675;52.870;-1.416;2023-05-23T06:31:37;102183.41;;;16.64;70.89
28448;BME280;15675;52.870;-1.416;2023-05-23T06:34:03;102192.97;;;16.49;71.35
28448;BME280;15675;52.870;-1.416;2023-05-23T06:36:29;102199.06;;;16.39;72.08
28448;BME280;15675;52.870;-1.416;2023-05-23T06:38:56;102199.94;;;16.49;71.81
28448;BME280;15675;52.870;-1.416;2023-05-23T06:41:22;102191.25;;;16.71;71.32
28448;BME280;15675;52.870;-1.416;2023-05-23T06:43:48;102189.53;;;16.83;70.87
28448;BME280;15675;52.870;-1.416;2023-05-23T06:46:14;102180.75;;;16.51;69.40
28448;BME280;15675;52.870;-1.416;2023-05-23T06:48:40;102178.66;;;15.64;70.84
28448;BME280;15675;52.870;-1.416;2023-05-23T06:51:06;102186.72;;;16.12;71.55
28448;BME280;15675;52.870;-1.416;2023-05-23T06:53:32;102182.44;;;16.26;70.95
28448;BME280;15675;52.870;-1.416;2023-05-23T06:55:58;102181.50;;;16.12;70.94
28448;BME280;15675;52.870;-1.416;2023-05-23T06:58:23;102196.47;;;16.37;71.49
28448;BME280;15675;52.870;-1.416;2023-05-23T07:00:49;102192.03;;;16.19;70.72
28448;BME280;15675;52.870;-1.416;2023-05-23T07:03:15;102189.13;;;15.67;72.42
28448;BME280;15675;52.870;-1.416;2023-05-23T07:05:41;102189.13;;;15.71;73.96
28448;BME280;15675;52.870;-1.416;2023-05-23T07:08:07;102200.72;;;16.15;73.45
28448;BME280;15675;52.870;-1.416;2023-05-23T07:10:35;102199.59;;;15.68;69.74
28448;BME280;15675;52.870;-1.416;2023-05-23T07:13:01;102208.25;;;15.57;70.18
28448;BME280;15675;52.870;-1.416;2023-05-23T07:15:27;102204.56;;;15.25;70.14
28448;BME280;15675;52.870;-1.416;2023-05-23T07:17:53;102210.75;;;15.38;70.36
28448;BME280;15675;52.870;-1.416;2023-05-23T07:20:19;102204.41;;;15.07;69.26
28448;BME280;15675;52.870;-1.416;2023-05-23T07:22:45;102200.28;;;15.36;69.74
28448;BME280;15675;52.870;-1.416;2023-05-23T07:25:10;102206.47;;;15.52;68.81
28448;BME280;15675;52.870;-1.416;2023-05-23T07:27:37;102204.69;;;15.44;69.66
28448;BME280;15675;52.870;-1.416;2023-05-23T07:30:03;102210.75;;;15.40;69.88
28448;BME280;15675;52.870;-1.416;2023-05-23T07:32:30;102209.97;;;15.54;71.30
28448;BME280;15675;52.870;-1.416;2023-05-23T07:34:55;102202.34;;;15.88;70.00
28448;BME280;15675;52.870;-1.416;2023-05-23T07:37:21;102206.41;;;15.45;68.78
28448;BME280;15675;52.870;-1.416;2023-05-23T07:39:47;102211.00;;;15.77;68.38
28448;BME280;15675;52.870;-1.416;2023-05-23T07:42:13;102210.25;;;15.95;65.82
28448;BME280;15675;52.870;-1.416;2023-05-23T07:44:40;102204.09;;;15.88;67.05
28448;BME280;15675;52.870;-1.416;2023-05-23T07:47:06;102216.16;;;15.69;67.45
28448;BME280;15675;52.870;-1.416;2023-05-23T07:49:32;102213.78;;;16.06;66.23
28448;BME280;15675;52.870;-1.416;2023-05-23T07:51:57;102221.06;;;15.19;66.36
28448;BME280;15675;52.870;-1.416;2023-05-23T07:54:23;102218.06;;;15.93;68.17
28448;BME280;15675;52.870;-1.416;2023-05-23T07:56:50;102224.31;;;16.14;68.07
28448;BME280;15675;52.870;-1.416;2023-05-23T07:59:16;102219.88;;;16.00;67.70
28448;BME280;15675;52.870;-1.416;2023-05-23T08:01:42;102217.31;;;16.13;66.74
28448;BME280;15675;52.870;-1.416;2023-05-23T08:04:09;102222.56;;;16.17;65.60
28448;BME280;15675;52.870;-1.416;2023-05-23T08:06:35;102213.41;;;15.47;65.93
28448;BME280;15675;52.870;-1.416;2023-05-23T08:09:02;102218.59;;;15.38;66.50
28448;BME280;15675;52.870;-1.416;2023-05-23T08:11:31;102223.34;;;15.95;68.55
28448;BME280;15675;52.870;-1.416;2023-05-23T08:13:56;102219.91;;;16.10;68.31
28448;BME280;15675;52.870;-1.416;2023-05-23T08:16:24;102231.13;;;15.82;68.14
28448;BME280;15675;52.870;-1.416;2023-05-23T08:18:52;102228.59;;;15.98;66.50
28448;BME280;15675;52.870;-1.416;2023-05-23T08:21:18;102237.91;;;15.59;66.45
28448;BME280;15675;52.870;-1.416;2023-05-23T08:23:44;102227.69;;;15.90;67.18
28448;BME280;15675;52.870;-1.416;2023-05-23T08:26:10;102238.09;;;15.80;67.90
28448;BME280;15675;52.870;-1.416;2023-05-23T08:28:35;102240.78;;;15.90;66.74
28448;BME280;15675;52.870;-1.416;2023-05-23T08:31:01;102234.72;;;16.00;65.25
28448;BME280;15675;52.870;-1.416;2023-05-23T08:33:27;102237.19;;;15.78;66.33
28448;BME280;15675;52.870;-1.416;2023-05-23T08:35:53;102239.16;;;16.16;65.44
28448;BME280;15675;52.870;-1.416;2023-05-23T08:38:19;102236.41;;;15.93;65.54
28448;BME280;15675;52.870;-1.416;2023-05-23T08:40:49;102232.09;;;16.04;65.97
28448;BME280;15675;52.870;-1.416;2023-05-23T08:43:17;102230.44;;;16.20;67.36
28448;BME280;15675;52.870;-1.416;2023-05-23T08:45:44;102231.34;;;16.29;64.57
28448;BME280;15675;52.870;-1.416;2023-05-23T08:48:12;102227.84;;;16.33;63.31
28448;BME280;15675;52.870;-1.416;2023-05-23T08:50:42;102221.81;;;16.51;62.02
28448;BME280;15675;52.870;-1.416;2023-05-23T08:53:14;102227.00;;;16.43;64.16
28448;BME280;15675;52.870;-1.416;2023-05-23T08:55:46;102221.03;;;16.98;61.92
28448;BME280;15675;52.870;-1.416;2023-05-23T08:58:14;102232.41;;;17.28;60.00
28448;BME280;15675;52.870;-1.416;2023-05-23T09:00:41;102228.00;;;17.72;59.32
28448;BME280;15675;52.870;-1.416;2023-05-23T09:03:08;102233.28;;;17.35;58.98
28448;BME280;15675;52.870;-1.416;2023-05-23T09:05:36;102234.16;;;16.95;59.33
28448;BME280;15675;52.870;-1.416;2023-05-23T09:08:02;102242.03;;;17.34;59.73
28448;BME280;15675;52.870;-1.416;2023-05-23T09:10:28;102231.53;;;17.60;58.88
28448;BME280;15675;52.870;-1.416;2023-05-23T09:12:54;102230.63;;;17.56;59.03
28448;BME280;15675;52.870;-1.416;2023-05-23T09:15:21;102243.81;;;17.32;60.48
28448;BME280;15675;52.870;-1.416;2023-05-23T09:17:48;102234.19;;;17.41;62.17
28448;BME280;15675;52.870;-1.416;2023-05-23T09:20:16;102230.59;;;17.86;60.88
28448;BME280;15675;52.870;-1.416;2023-05-23T09:22:46;102234.09;;;17.92;59.62
28448;BME280;15675;52.870;-1.416;2023-05-23T09:25:12;102234.13;;;17.55;60.19
28448;BME280;15675;52.870;-1.416;2023-05-23T09:27:38;102247.28;;;17.37;60.18
28448;BME280;15675;52.870;-1.416;2023-05-23T09:30:06;102249.91;;;17.34;61.17
28448;BME280;15675;52.870;-1.416;2023-05-23T09:32:32;102249.03;;;17.21;62.16
28448;BME280;15675;52.870;-1.416;2023-05-23T09:35:00;102242.03;;;17.49;60.72
28448;BME280;15675;52.870;-1.416;2023-05-23T09:37:31;102246.41;;;17.21;59.39
28448;BME280;15675;52.870;-1.416;2023-05-23T09:39:59;102237.56;;;18.02;57.09
28448;BME280;15675;52.870;-1.416;2023-05-23T09:42:31;102227.84;;;18.26;55.51
28448;BME280;15675;52.870;-1.416;2023-05-23T09:44:58;102218.28;;;18.05;55.38
28448;BME280;15675;52.870;-1.416;2023-05-23T09:47:24;102221.72;;;18.21;55.06
28448;BME280;15675;52.870;-1.416;2023-05-23T09:49:51;102228.59;;;18.48;54.92
28448;BME280;15675;52.870;-1.416;2023-05-23T09:52:17;102219.22;;;17.94;55.75
28448;BME280;15675;52.870;-1.416;2023-05-23T09:54:47;102214.81;;;17.89;54.83
28448;BME280;15675;52.870;-1.416;2023-05-23T09:57:14;102216.53;;;18.05;55.01
28448;BME280;15675;52.870;-1.416;2023-05-23T09:59:48;102214.75;;;18.10;53.44
28448;BME280;15675;52.870;-1.416;2023-05-23T10:02:31;102217.19;;;18.52;53.11
28448;BME280;15675;52.870;-1.416;2023-05-23T10:05:06;102218.06;;;18.51;52.88
28448;BME280;15675;52.870;-1.416;2023-05-23T10:07:34;102217.41;;;18.10;51.78
28448;BME280;15675;52.870;-1.416;2023-05-23T10:10:03;102212.19;;;17.87;52.25
28448;BME280;15675;52.870;-1.416;2023-05-23T10:12:41;102213.88;;;18.07;52.11
28448;BME280;15675;52.870;-1.416;2023-05-23T10:15:08;102214.63;;;18.41;51.54
28448;BME280;15675;52.870;-1.416;2023-05-23T10:18:14;102207.41;;;18.70;49.56
28448;BME280;15675;52.870;-1.416;2023-05-23T10:20:46;102212.03;;;18.31;49.76
28448;BME280;15675;52.870;-1.416;2023-05-23T10:23:14;102213.72;;;18.45;49.98
28448;BME280;15675;52.870;-1.416;2023-05-23T10:25:41;102213.91;;;18.10;49.81
28448;BME280;15675;52.870;-1.416;2023-05-23T10:28:08;102213.69;;;18.52;49.62
28448;BME280;15675;52.870;-1.416;2023-05-23T10:30:35;102217.31;;;18.27;51.15
28448;BME280;15675;52.870;-1.416;2023-05-23T10:33:02;102208.34;;;18.66;49.29
28448;BME280;15675;52.870;-1.416;2023-05-23T10:35:41;102212.59;;;18.84;47.39
28448;BME280;15675;52.870;-1.416;2023-05-23T10:44:28;102207.03;;;19.22;49.66
28448;BME280;15675;52.870;-1.416;2023-05-23T10:46:57;102197.44;;;19.20;48.06
28448;BME280;15675;52.870;-1.416;2023-05-23T10:49:43;102191.03;;;19.47;47.36
28448;BME280;15675;52.870;-1.416;2023-05-23T10:52:15;102200.31;;;18.84;50.04
28448;BME280;15675;52.870;-1.416;2023-05-23T10:54:44;102195.91;;;18.89;49.93
28448;BME280;15675;52.870;-1.416;2023-05-23T10:57:11;102198.47;;;19.00;49.90
28448;BME280;15675;52.870;-1.416;2023-05-23T10:59:38;102196.66;;;19.07;52.38
28448;BME280;15675;52.870;-1.416;2023-05-23T11:02:12;102193.88;;;19.27;50.21
28448;BME280;15675;52.870;-1.416;2023-05-23T11:04:40;102179.53;;;19.54;48.61
28448;BME280;15675;52.870;-1.416;2023-05-23T11:07:27;102192.94;;;19.33;51.29
28448;BME280;15675;52.870;-1.416;2023-05-23T11:10:11;102184.06;;;19.41;47.85
28448;BME280;15675;52.870;-1.416;2023-05-23T11:12:41;102179.78;;;19.33;48.10
28448;BME280;15675;52.870;-1.416;2023-05-23T11:15:23;102181.81;;;19.03;49.80
28448;BME280;15675;52.870;-1.416;2023-05-23T11:17:54;102187.84;;;19.11;50.01
28448;BME280;15675;52.870;-1.416;2023-05-23T11:20:23;102182.19;;;18.39;49.38
28448;BME280;15675;52.870;-1.416;2023-05-23T11:23:02;102184.56;;;18.78;50.50
28448;BME280;15675;52.870;-1.416;2023-05-23T11:25:47;102188.97;;;18.79;51.21
28448;BME280;15675;52.870;-1.416;2023-05-23T11:28:14;102172.97;;;19.08;49.31
28448;BME280;15675;52.870;-1.416;2023-05-23T11:30:40;102181.25;;;18.56;50.69
28448;BME280;15675;52.870;-1.416;2023-05-23T11:33:09;102182.91;;;18.68;49.74
28448;BME280;15675;52.870;-1.416;2023-05-23T11:35:40;102167.22;;;18.58;50.57
28448;BME280;15675;52.870;-1.416;2023-05-23T11:38:06;102181.34;;;18.37;51.47
28448;BME280;15675;52.870;-1.416;2023-05-23T11:40:37;102168.78;;;18.83;49.93
28448;BME280;15675;52.870;-1.416;2023-05-23T11:43:06;102168.44;;;19.24;50.00
28448;BME280;15675;52.870;-1.416;2023-05-23T11:45:33;102173.31;;;19.63;49.54
28448;BME280;15675;52.870;-1.416;2023-05-23T11:48:15;102165.03;;;19.13;48.97
28448;BME280;15675;52.870;-1.416;2023-05-23T11:50:45;102182.81;;;18.82;49.68
28448;BME280;15675;52.870;-1.416;2023-05-23T11:53:12;102167.88;;;18.82;48.09
28448;BME280;15675;52.870;-1.416;2023-05-23T11:55:49;102169.22;;;19.36;47.56
28448;BME280;15675;52.870;-1.416;2023-05-23T11:58:15;102172.91;;;19.14;49.28
28448;BME280;15675;52.870;-1.416;2023-05-23T12:00:43;102168.59;;;19.07;49.02
28448;BME280;15675;52.870;-1.416;2023-05-23T12:03:09;102173.59;;;19.34;49.64
28448;BME280;15675;52.870;-1.416;2023-05-23T12:05:36;102159.03;;;18.99;49.08
28448;BME280;15675;52.870;-1.416;2023-05-23T12:08:02;102168.66;;;19.01;50.38
28448;BME280;15675;52.870;-1.416;2023-05-23T12:10:28;102163.72;;;18.55;49.55
28448;BME280;15675;52.870;-1.416;2023-05-23T12:12:54;102169.72;;;18.71;50.73
28448;BME280;15675;52.870;-1.416;2023-05-23T12:15:25;102171.19;;;19.10;52.61
28448;BME280;15675;52.870;-1.416;2023-05-23T12:17:53;102168.81;;;18.75;51.91
28448;BME280;15675;52.870;-1.416;2023-05-23T12:20:19;102158.13;;;19.00;51.62
28448;BME280;15675;52.870;-1.416;2023-05-23T12:22:45;102166.00;;;19.00;52.19
28448;BME280;15675;52.870;-1.416;2023-05-23T12:25:11;102161.69;;;18.94;51.24
28448;BME280;15675;52.870;-1.416;2023-05-23T12:27:40;102159.81;;;19.07;51.10
28448;BME280;15675;52.870;-1.416;2023-05-23T12:30:12;102154.88;;;19.61;51.06
28448;BME280;15675;52.870;-1.416;2023-05-23T12:32:39;102158.06;;;19.93;49.05
28448;BME280;15675;52.870;-1.416;2023-05-23T12:35:07;102150.78;;;20.10;50.91
28448;BME280;15675;52.870;-1.416;2023-05-23T12:37:34;102142.97;;;20.04;50.16
28448;BME280;15675;52.870;-1.416;2023-05-23T12:40:19;102142.34;;;19.87;49.07
28448;BME280;15675;52.870;-1.416;2023-05-23T12:42:52;102145.03;;;18.93;50.06
28448;BME280;15675;52.870;-1.416;2023-05-23T12:45:18;102155.59;;;18.90;50.33
28448;BME280;15675;52.870;-1.416;2023-05-23T12:47:44;102149.75;;;18.45;49.36
28448;BME280;15675;52.870;-1.416;2023-05-23T12:50:10;102136.38;;;18.76;49.16